sensor_id;sensor_type;location;lat;lon;timestamp;noise_LAeq;noise_LA_min;noise_LA_max;noise_LA01;noise_LA95
61321;Laerm;17737;52.586;13.284;2023-02-01T00:01:19;52.93;51.64;56.65;;
61321;Laerm;17737;52.586;13.284;2023-02-01T00:03:47;52.76;51.31;67.51;;
61321;Laerm;17737;52.586;13.284;2023-02-01T00:06:15;53.84;51.57;62.41;;
61321;Laerm;17737;52.586;13.284;2023-02-01T00:08:43;52.77;51.39;57.27;;
61321;Laerm;17737;52.586;13.284;2023-02-01T00:11:12;52.77;51.13;56.26;;
61321;Laerm;17737;52.586;13.284;2023-02-01T00:13:41;53.77;51.51;68.40;;
61321;Laerm;17737;52.586;13.284;2023-02-01T00:16:12;54.66;51.53;68.53;;
61321;Laerm;17737;52.586;13.284;2023-02-01T00:18:45;53.40;51.31;61.58;;
61321;Laerm;17737;52.586;13.284;2023-02-01T00:21:15;52.72;51.45;55.47;;
61321;Laerm;17737;52.586;13.284;2023-02-01T00:23:43;52.73;51.54;54.88;;
61321;Laerm;17737;52.586;13.284;2023-02-01T00:26:15;52.71;51.36;56.86;;
61321;Laerm;17737;52.586;13.284;2023-02-01T00:28:44;52.72;51.42;55.68;;
61321;Laerm;17737;52.586;13.284;2023-02-01T00:31:12;52.74;51.58;56.10;;
61321;Laerm;17737;52.586;13.284;2023-02-01T00:33:41;54.49;51.78;67.07;;
61321;Laerm;17737;52.586;13.284;2023-02-01T00:36:11;52.69;51.41;55.83;;
61321;Laerm;17737;52.586;13.284;2023-02-01T00:38:40;52.70;51.50;55.58;;
61321;Laerm;17737;52.586;13.284;2023-02-01T00:41:12;54.05;51.56;67.52;;
61321;Laerm;17737;52.586;13.284;2023-02-01T00:43:41;52.70;51.31;55.22;;
61321;Laerm;17737;52.586;13.284;2023-02-01T00:46:10;52.74;51.53;68.02;;
61321;Laerm;17737;52.586;13.284;2023-02-01T00:48:39;52.74;51.53;67.97;;
61321;Laerm;17737;52.586;13.284;2023-02-01T00:51:12;52.73;51.44;67.15;;
61321;Laerm;17737;52.586;13.284;2023-02-01T00:53:41;52.68;51.40;55.04;;
61321;Laerm;17737;52.586;13.284;2023-02-01T00:56:09;52.72;51.42;67.51;;
61321;Laerm;17737;52.586;13.284;2023-02-01T00:58:37;53.50;51.42;68.36;;
61321;Laerm;17737;52.586;13.284;2023-02-01T01:01:08;52.69;51.43;56.08;;
61321;Laerm;17737;52.586;13.284;2023-02-01T01:03:39;52.70;51.37;55.81;;
61321;Laerm;17737;52.586;13.284;2023-02-01T01:06:12;53.25;51.57;62.61;;
61321;Laerm;17737;52.586;13.284;2023-02-01T01:08:41;52.90;51.24;62.06;;
61321;Laerm;17737;52.586;13.284;2023-02-01T01:11:13;53.28;51.53;68.67;;
61321;Laerm;17737;52.586;13.284;2023-02-01T01:13:41;52.69;51.30;56.22;;
61321;Laerm;17737;52.586;13.284;2023-02-01T01:16:11;52.68;51.38;55.74;;
61321;Laerm;17737;52.586;13.284;2023-02-01T01:18:39;52.71;51.40;67.58;;
61321;Laerm;17737;52.586;13.284;2023-02-01T01:21:09;52.67;51.38;55.23;;
61321;Laerm;17737;52.586;13.284;2023-02-01T01:23:40;52.70;51.58;54.83;;
61321;Laerm;17737;52.586;13.284;2023-02-01T01:26:21;53.72;51.41;64.55;;
61321;Laerm;17737;52.586;13.284;2023-02-01T01:28:50;54.02;51.30;65.60;;
61321;Laerm;17737;52.586;13.284;2023-02-01T01:31:20;52.72;51.26;69.23;;
61321;Laerm;17737;52.586;13.284;2023-02-01T01:33:50;55.88;51.24;72.68;;
61321;Laerm;17737;52.586;13.284;2023-02-01T01:36:19;52.68;51.33;55.46;;
61321;Laerm;17737;52.586;13.284;2023-02-01T01:38:49;52.76;51.52;67.90;;
61321;Laerm;17737;52.586;13.284;2023-02-01T01:41:20;52.69;51.05;55.74;;
61321;Laerm;17737;52.586;13.284;2023-02-01T01:43:57;53.44;51.53;61.79;;
61321;Laerm;17737;52.586;13.284;2023-02-01T01:46:29;52.65;51.41;54.69;;
61321;Laerm;17737;52.586;13.284;2023-02-01T01:49:06;52.66;51.52;54.78;;
61321;Laerm;17737;52.586;13.284;2023-02-01T01:51:40;53.36;51.53;61.73;;
61321;Laerm;17737;52.586;13.284;2023-02-01T01:54:16;53.48;51.38;62.86;;
61321;Laerm;17737;52.586;13.284;2023-02-01T01:56:52;52.66;51.37;55.43;;
61321;Laerm;17737;52.586;13.284;2023-02-01T01:59:22;52.67;51.44;55.27;;
61321;Laerm;17737;52.586;13.284;2023-02-01T02:01:52;52.66;51.34;55.24;;
61321;Laerm;17737;52.586;13.284;2023-02-01T02:04:20;53.55;51.47;68.23;;
61321;Laerm;17737;52.586;13.284;2023-02-01T02:06:56;53.28;51.44;61.45;;
61321;Laerm;17737;52.586;13.284;2023-02-01T02:09:28;52.67;51.35;54.96;;
61321;Laerm;17737;52.586;13.284;2023-02-01T02:11:56;53.92;51.38;66.88;;
61321;Laerm;17737;52.586;13.284;2023-02-01T02:14:25;52.66;51.47;56.32;;
61321;Laerm;17737;52.586;13.284;2023-02-01T02:17:14;52.66;51.26;55.88;;
61321;Laerm;17737;52.586;13.284;2023-02-01T02:20:45;52.66;51.44;55.12;;
61321;Laerm;17737;52.586;13.284;2023-02-01T02:27:03;52.95;51.34;59.44;;
61321;Laerm;17737;52.586;13.284;2023-02-01T02:30:36;52.90;51.39;58.36;;
61321;Laerm;17737;52.586;13.284;2023-02-01T02:36:30;52.68;51.37;54.94;;
61321;Laerm;17737;52.586;13.284;2023-02-01T02:39:07;52.68;51.60;55.64;;
61321;Laerm;17737;52.586;13.284;2023-02-01T02:41:49;52.69;51.35;54.28;;
61321;Laerm;17737;52.586;13.284;2023-02-01T02:44:47;52.67;51.38;55.54;;
61321;Laerm;17737;52.586;13.284;2023-02-01T02:47:44;53.36;51.39;60.73;;
61321;Laerm;17737;52.586;13.284;2023-02-01T02:50:24;53.02;51.41;64.00;;
61321;Laerm;17737;52.586;13.284;2023-02-01T02:53:16;53.35;51.61;60.59;;
61321;Laerm;17737;52.586;13.284;2023-02-01T02:56:05;53.18;51.38;61.45;;
61321;Laerm;17737;52.586;13.284;2023-02-01T02:58:54;53.78;51.59;68.53;;
61321;Laerm;17737;52.586;13.284;2023-02-01T03:01:41;52.91;51.45;58.52;;
61321;Laerm;17737;52.586;13.284;2023-02-01T03:04:28;53.67;51.14;63.52;;
61321;Laerm;17737;52.586;13.284;2023-02-01T03:06:57;52.67;51.54;55.26;;
61321;Laerm;17737;52.586;13.284;2023-02-01T03:09:31;53.32;51.62;69.01;;
61321;Laerm;17737;52.586;13.284;2023-02-01T03:12:08;53.26;51.58;60.69;;
61321;Laerm;17737;52.586;13.284;2023-02-01T03:15:07;52.67;51.42;55.22;;
61321;Laerm;17737;52.586;13.284;2023-02-01T03:17:44;52.68;51.28;55.58;;
61321;Laerm;17737;52.586;13.284;2023-02-01T03:20:15;52.68;51.39;55.01;;
61321;Laerm;17737;52.586;13.284;2023-02-01T03:22:52;53.03;51.56;58.71;;
61321;Laerm;17737;52.586;13.284;2023-02-01T03:25:28;53.26;51.58;59.25;;
61321;Laerm;17737;52.586;13.284;2023-02-01T03:28:01;54.47;51.46;64.56;;
61321;Laerm;17737;52.586;13.284;2023-02-01T03:30:34;53.56;51.47;61.09;;
61321;Laerm;17737;52.586;13.284;2023-02-01T03:33:10;52.65;51.39;55.83;;
61321;Laerm;17737;52.586;13.284;2023-02-01T03:35:49;53.11;51.46;59.84;;
61321;Laerm;17737;52.586;13.284;2023-02-01T03:38:28;52.97;51.44;68.82;;
61321;Laerm;17737;52.586;13.284;2023-02-01T03:41:08;52.69;51.29;67.30;;
61321;Laerm;17737;52.586;13.284;2023-02-01T03:43:49;52.76;51.49;67.98;;
61321;Laerm;17737;52.586;13.284;2023-02-01T03:46:27;53.12;51.51;59.47;;
61321;Laerm;17737;52.586;13.284;2023-02-01T03:49:04;55.19;51.56;65.62;;
61321;Laerm;17737;52.586;13.284;2023-02-01T03:51:36;52.68;51.53;56.97;;
61321;Laerm;17737;52.586;13.284;2023-02-01T03:54:11;53.30;51.32;62.22;;
61321;Laerm;17737;52.586;13.284;2023-02-01T03:56:45;53.46;51.39;58.59;;
61321;Laerm;17737;52.586;13.284;2023-02-01T03:59:15;53.92;51.50;60.08;;
61321;Laerm;17737;52.586;13.284;2023-02-01T04:01:43;53.38;51.46;66.16;;
61321;Laerm;17737;52.586;13.284;2023-02-01T04:04:11;53.88;51.42;60.11;;
61321;Laerm;17737;52.586;13.284;2023-02-01T04:06:46;53.51;51.35;60.85;;
61321;Laerm;17737;52.586;13.284;2023-02-01T04:09:17;54.04;51.30;66.11;;
61321;Laerm;17737;52.586;13.284;2023-02-01T04:11:45;54.37;51.51;61.41;;
61321;Laerm;17737;52.586;13.284;2023-02-01T04:14:13;52.67;51.31;55.59;;
61321;Laerm;17737;52.586;13.284;2023-02-01T04:16:41;55.37;51.65;61.59;;
61321;Laerm;17737;52.586;13.284;2023-02-01T04:19:09;54.39;51.27;61.51;;
61321;Laerm;17737;52.586;13.284;2023-02-01T04:21:37;55.78;51.44;65.52;;
61321;Laerm;17737;52.586;13.284;2023-02-01T04:24:06;54.51;51.70;63.15;;
61321;Laerm;17737;52.586;13.284;2023-02-01T04:26:36;56.82;51.35;69.51;;
61321;Laerm;17737;52.586;13.284;2023-02-01T04:29:04;55.49;51.39;68.03;;
61321;Laerm;17737;52.586;13.284;2023-02-01T04:31:32;54.49;51.69;61.72;;
61321;Laerm;17737;52.586;13.284;2023-02-01T04:34:02;56.47;51.72;66.77;;
61321;Laerm;17737;52.586;13.284;2023-02-01T04:36:31;55.86;51.64;68.50;;
61321;Laerm;17737;52.586;13.284;2023-02-01T04:38:58;53.08;51.52;58.08;;
61321;Laerm;17737;52.586;13.284;2023-02-01T04:41:26;55.82;51.65;62.49;;
61321;Laerm;17737;52.586;13.284;2023-02-01T04:43:57;53.57;51.37;66.55;;
61321;Laerm;17737;52.586;13.284;2023-02-01T04:46:25;55.79;51.67;68.69;;
61321;Laerm;17737;52.586;13.284;2023-02-01T04:48:53;54.65;51.55;62.37;;
61321;Laerm;17737;52.586;13.284;2023-02-01T04:51:21;53.21;51.58;57.74;;
61321;Laerm;17737;52.586;13.284;2023-02-01T04:53:49;55.87;51.63;62.71;;
61321;Laerm;17737;52.586;13.284;2023-02-01T04:56:17;56.72;51.72;65.86;;
61321;Laerm;17737;52.586;13.284;2023-02-01T04:58:45;55.47;51.50;61.87;;
61321;Laerm;17737;52.586;13.284;2023-02-01T05:01:14;54.35;51.62;60.71;;
61321;Laerm;17737;52.586;13.284;2023-02-01T05:03:42;56.31;51.65;68.16;;
61321;Laerm;17737;52.586;13.284;2023-02-01T05:06:10;55.44;51.71;62.61;;
61321;Laerm;17737;52.586;13.284;2023-02-01T05:08:38;55.92;51.74;63.04;;
61321;Laerm;17737;52.586;13.284;2023-02-01T05:11:06;56.10;51.52;64.43;;
61321;Laerm;17737;52.586;13.284;2023-02-01T05:13:54;56.43;51.66;64.36;;
61321;Laerm;17737;52.586;13.284;2023-02-01T05:16:22;58.02;51.64;67.38;;
61321;Laerm;17737;52.586;13.284;2023-02-01T05:18:50;56.02;51.31;68.62;;
61321;Laerm;17737;52.586;13.284;2023-02-01T05:21:19;56.15;51.74;62.45;;
61321;Laerm;17737;52.586;13.284;2023-02-01T05:23:47;56.86;51.76;64.69;;
61321;Laerm;17737;52.586;13.284;2023-02-01T05:26:33;54.85;51.75;60.84;;
61321;Laerm;17737;52.586;13.284;2023-02-01T05:29:01;55.87;51.63;65.77;;
61321;Laerm;17737;52.586;13.284;2023-02-01T05:31:31;57.99;51.43;68.27;;
61321;Laerm;17737;52.586;13.284;2023-02-01T05:33:59;55.66;51.51;62.52;;
61321;Laerm;17737;52.586;13.284;2023-02-01T05:36:27;55.31;51.51;64.01;;
61321;Laerm;17737;52.586;13.284;2023-02-01T05:38:55;55.28;51.57;63.80;;
61321;Laerm;17737;52.586;13.284;2023-02-01T05:41:24;55.75;51.45;61.47;;
61321;Laerm;17737;52.586;13.284;2023-02-01T05:43:52;56.47;51.90;62.21;;
61321;Laerm;17737;52.586;13.284;2023-02-01T05:46:20;56.49;51.65;62.65;;
61321;Laerm;17737;52.586;13.284;2023-02-01T05:48:50;55.73;51.68;65.68;;
61321;Laerm;17737;52.586;13.284;2023-02-01T05:51:18;55.54;51.67;67.00;;
61321;Laerm;17737;52.586;13.284;2023-02-01T05:53:46;58.06;51.87;66.01;;
61321;Laerm;17737;52.586;13.284;2023-02-01T05:56:14;56.82;51.67;62.67;;
61321;Laerm;17737;52.586;13.284;2023-02-01T05:58:42;57.54;51.69;65.71;;
61321;Laerm;17737;52.586;13.284;2023-02-01T06:01:10;56.24;51.81;64.92;;
61321;Laerm;17737;52.586;13.284;2023-02-01T06:03:38;57.89;51.73;66.96;;
61321;Laerm;17737;52.586;13.284;2023-02-01T06:06:07;57.01;51.67;66.36;;
61321;Laerm;17737;52.586;13.284;2023-02-01T06:08:35;55.25;51.52;67.68;;
61321;Laerm;17737;52.586;13.284;2023-02-01T06:11:07;56.68;52.07;62.88;;
61321;Laerm;17737;52.586;13.284;2023-02-01T06:13:39;55.07;51.64;62.50;;
61321;Laerm;17737;52.586;13.284;2023-02-01T06:16:07;56.55;51.35;63.25;;
61321;Laerm;17737;52.586;13.284;2023-02-01T06:18:35;57.14;51.78;66.98;;
61321;Laerm;17737;52.586;13.284;2023-02-01T06:21:04;53.79;51.60;68.29;;
61321;Laerm;17737;52.586;13.284;2023-02-01T06:23:34;56.54;52.01;63.03;;
61321;Laerm;17737;52.586;13.284;2023-02-01T06:26:05;57.14;51.63;64.53;;
61321;Laerm;17737;52.586;13.284;2023-02-01T06:28:34;57.71;51.58;65.10;;
61321;Laerm;17737;52.586;13.284;2023-02-01T06:31:04;56.93;51.63;64.65;;
61321;Laerm;17737;52.586;13.284;2023-02-01T06:33:36;58.56;52.23;67.48;;
61321;Laerm;17737;52.586;13.284;2023-02-01T06:36:09;58.28;52.10;70.16;;
61321;Laerm;17737;52.586;13.284;2023-02-01T06:38:40;57.56;51.71;64.04;;
61321;Laerm;17737;52.586;13.284;2023-02-01T06:41:09;56.54;51.50;67.10;;
61321;Laerm;17737;52.586;13.284;2023-02-01T06:43:37;58.37;51.76;64.48;;
61321;Laerm;17737;52.586;13.284;2023-02-01T06:46:07;56.89;51.89;63.93;;
61321;Laerm;17737;52.586;13.284;2023-02-01T06:48:37;59.94;52.28;70.40;;
61321;Laerm;17737;52.586;13.284;2023-02-01T06:51:05;58.34;51.86;68.68;;
61321;Laerm;17737;52.586;13.284;2023-02-01T06:53:34;56.89;51.78;66.77;;
61321;Laerm;17737;52.586;13.284;2023-02-01T06:56:04;55.86;51.74;75.93;;
61321;Laerm;17737;52.586;13.284;2023-02-01T06:58:33;58.63;52.53;64.87;;
61321;Laerm;17737;52.586;13.284;2023-02-01T07:01:05;57.20;51.92;67.17;;
61321;Laerm;17737;52.586;13.284;2023-02-01T07:03:34;57.15;51.53;62.64;;
61321;Laerm;17737;52.586;13.284;2023-02-01T07:06:02;56.89;51.58;63.41;;
61321;Laerm;17737;52.586;13.284;2023-02-01T07:08:34;56.33;51.61;68.36;;
61321;Laerm;17737;52.586;13.284;2023-02-01T07:11:05;58.98;51.59;67.19;;
61321;Laerm;17737;52.586;13.284;2023-02-01T07:13:34;58.02;52.24;63.95;;
61321;Laerm;17737;52.586;13.284;2023-02-01T07:16:05;58.54;52.02;68.83;;
61321;Laerm;17737;52.586;13.284;2023-02-01T07:18:34;58.43;51.83;66.82;;
61321;Laerm;17737;52.586;13.284;2023-02-01T07:21:02;59.21;52.10;67.70;;
61321;Laerm;17737;52.586;13.284;2023-02-01T07:23:30;58.43;51.90;66.48;;
61321;Laerm;17737;52.586;13.284;2023-02-01T07:26:02;57.57;51.86;68.33;;
61321;Laerm;17737;52.586;13.284;2023-02-01T07:28:34;56.89;51.76;65.64;;
61321;Laerm;17737;52.586;13.284;2023-02-01T07:31:03;58.08;51.72;68.29;;
61321;Laerm;17737;52.586;13.284;2023-02-01T07:33:32;57.62;52.02;65.95;;
61321;Laerm;17737;52.586;13.284;2023-02-01T07:36:02;56.28;51.71;63.53;;
61321;Laerm;17737;52.586;13.284;2023-02-01T07:38:30;58.13;51.82;64.74;;
61321;Laerm;17737;52.586;13.284;2023-02-01T07:40:58;59.09;51.90;67.23;;
61321;Laerm;17737;52.586;13.284;2023-02-01T07:43:27;57.68;52.04;63.63;;
61321;Laerm;17737;52.586;13.284;2023-02-01T07:45:57;59.60;52.15;68.98;;
61321;Laerm;17737;52.586;13.284;2023-02-01T07:48:26;59.87;52.38;73.99;;
61321;Laerm;17737;52.586;13.284;2023-02-01T07:50:58;59.61;51.92;73.30;;
61321;Laerm;17737;52.586;13.284;2023-02-01T07:53:26;57.63;51.98;64.69;;
61321;Laerm;17737;52.586;13.284;2023-02-01T07:55:54;58.01;52.16;66.26;;
61321;Laerm;17737;52.586;13.284;2023-02-01T07:58:24;59.92;52.28;70.04;;
61321;Laerm;17737;52.586;13.284;2023-02-01T08:00:53;61.34;52.13;70.01;;
61321;Laerm;17737;52.586;13.284;2023-02-01T08:03:40;59.31;52.26;68.69;;
61321;Laerm;17737;52.586;13.284;2023-02-01T08:06:08;60.08;52.16;69.98;;
61321;Laerm;17737;52.586;13.284;2023-02-01T08:08:36;59.19;52.62;68.66;;
61321;Laerm;17737;52.586;13.284;2023-02-01T08:11:06;58.85;51.96;68.60;;
61321;Laerm;17737;52.586;13.284;2023-02-01T08:13:35;59.02;52.17;66.85;;
61321;Laerm;17737;52.586;13.284;2023-02-01T08:16:06;60.23;52.44;69.85;;
61321;Laerm;17737;52.586;13.284;2023-02-01T08:18:35;59.94;52.30;67.83;;
61321;Laerm;17737;52.586;13.284;2023-02-01T08:21:07;58.36;52.16;67.97;;
61321;Laerm;17737;52.586;13.284;2023-02-01T08:23:37;57.49;52.32;67.19;;
61321;Laerm;17737;52.586;13.284;2023-02-01T08:26:07;59.91;52.40;67.97;;
61321;Laerm;17737;52.586;13.284;2023-02-01T08:28:36;60.36;51.99;67.15;;
61321;Laerm;17737;52.586;13.284;2023-02-01T08:31:07;59.51;52.39;68.47;;
61321;Laerm;17737;52.586;13.284;2023-02-01T08:33:35;59.51;52.30;68.05;;
61321;Laerm;17737;52.586;13.284;2023-02-01T08:36:08;58.51;52.21;68.91;;
61321;Laerm;17737;52.586;13.284;2023-02-01T08:38:38;58.99;52.42;66.73;;
61321;Laerm;17737;52.586;13.284;2023-02-01T08:41:09;62.00;53.02;69.03;;
61321;Laerm;17737;52.586;13.284;2023-02-01T08:43:37;60.56;52.53;69.58;;
61321;Laerm;17737;52.586;13.284;2023-02-01T08:46:06;60.68;52.46;69.13;;
61321;Laerm;17737;52.586;13.284;2023-02-01T08:48:35;58.70;52.50;69.34;;
61321;Laerm;17737;52.586;13.284;2023-02-01T08:51:07;59.73;52.36;68.56;;
61321;Laerm;17737;52.586;13.284;2023-02-01T08:53:37;59.87;52.27;68.56;;
61321;Laerm;17737;52.586;13.284;2023-02-01T08:56:07;57.41;52.35;67.79;;
61321;Laerm;17737;52.586;13.284;2023-02-01T08:58:38;60.14;52.63;66.52;;
61321;Laerm;17737;52.586;13.284;2023-02-01T09:01:10;58.41;52.03;67.86;;
61321;Laerm;17737;52.586;13.284;2023-02-01T09:03:39;60.12;52.34;68.16;;
61321;Laerm;17737;52.586;13.284;2023-02-01T09:06:11;58.52;52.47;67.39;;
61321;Laerm;17737;52.586;13.284;2023-02-01T09:08:42;59.05;52.39;67.59;;
61321;Laerm;17737;52.586;13.284;2023-02-01T09:11:13;57.75;51.89;65.71;;
61321;Laerm;17737;52.586;13.284;2023-02-01T09:13:41;58.07;52.22;65.79;;
61321;Laerm;17737;52.586;13.284;2023-02-01T09:16:10;59.25;52.96;66.77;;
61321;Laerm;17737;52.586;13.284;2023-02-01T09:18:38;56.42;51.62;66.67;;
61321;Laerm;17737;52.586;13.284;2023-02-01T09:21:23;57.83;51.84;68.00;;
61321;Laerm;17737;52.586;13.284;2023-02-01T09:23:52;59.99;52.45;69.43;;
61321;Laerm;17737;52.586;13.284;2023-02-01T09:26:20;58.58;51.97;65.67;;
61321;Laerm;17737;52.586;13.284;2023-02-01T09:28:57;57.92;51.88;64.07;;
61321;Laerm;17737;52.586;13.284;2023-02-01T09:31:26;58.03;51.75;65.59;;
61321;Laerm;17737;52.586;13.284;2023-02-01T09:33:54;57.97;52.13;72.33;;
61321;Laerm;17737;52.586;13.284;2023-02-01T09:36:23;56.38;51.78;62.94;;
61321;Laerm;17737;52.586;13.284;2023-02-01T09:38:52;57.59;51.98;66.75;;
61321;Laerm;17737;52.586;13.284;2023-02-01T09:41:35;59.16;51.63;67.68;;
61321;Laerm;17737;52.586;13.284;2023-02-01T09:44:21;57.37;51.63;64.86;;
61321;Laerm;17737;52.586;13.284;2023-02-01T09:47:12;57.55;51.66;66.25;;
61321;Laerm;17737;52.586;13.284;2023-02-01T09:49:51;56.80;51.49;65.50;;
61321;Laerm;17737;52.586;13.284;2023-02-01T09:52:32;58.72;51.78;66.71;;
61321;Laerm;17737;52.586;13.284;2023-02-01T09:55:06;56.99;52.16;64.77;;
61321;Laerm;17737;52.586;13.284;2023-02-01T09:57:49;57.77;52.13;64.80;;
61321;Laerm;17737;52.586;13.284;2023-02-01T10:00:23;57.12;52.17;64.05;;
61321;Laerm;17737;52.586;13.284;2023-02-01T10:02:54;57.55;52.09;67.80;;
61321;Laerm;17737;52.586;13.284;2023-02-01T10:05:48;59.37;51.62;67.92;;
61321;Laerm;17737;52.586;13.284;2023-02-01T10:08:52;56.43;51.66;66.00;;
61321;Laerm;17737;52.586;13.284;2023-02-01T10:11:33;59.44;52.02;67.19;;
61321;Laerm;17737;52.586;13.284;2023-02-01T10:14:34;57.69;51.50;69.76;;
61321;Laerm;17737;52.586;13.284;2023-02-01T10:17:23;58.86;51.84;67.21;;
61321;Laerm;17737;52.586;13.284;2023-02-01T10:20:04;60.22;51.99;70.06;;
61321;Laerm;17737;52.586;13.284;2023-02-01T10:22:41;63.21;52.50;76.91;;
61321;Laerm;17737;52.586;13.284;2023-02-01T10:25:37;56.85;51.65;63.82;;
61321;Laerm;17737;52.586;13.284;2023-02-01T10:28:16;58.67;51.97;68.20;;
61321;Laerm;17737;52.586;13.284;2023-02-01T10:30:47;58.41;52.00;66.56;;
61321;Laerm;17737;52.586;13.284;2023-02-01T10:33:18;58.35;51.79;72.55;;
61321;Laerm;17737;52.586;13.284;2023-02-01T10:35:56;57.59;51.78;66.39;;
61321;Laerm;17737;52.586;13.284;2023-02-01T10:38:28;57.23;51.72;66.19;;
61321;Laerm;17737;52.586;13.284;2023-02-01T10:41:03;59.65;52.48;66.34;;
61321;Laerm;17737;52.586;13.284;2023-02-01T10:43:35;57.09;51.94;65.88;;
61321;Laerm;17737;52.586;13.284;2023-02-01T10:46:03;57.46;52.07;64.63;;
61321;Laerm;17737;52.586;13.284;2023-02-01T10:48:32;60.81;53.14;77.24;;
61321;Laerm;17737;52.586;13.284;2023-02-01T10:51:06;58.37;51.93;77.61;;
61321;Laerm;17737;52.586;13.284;2023-02-01T10:53:44;59.94;52.48;67.43;;
61321;Laerm;17737;52.586;13.284;2023-02-01T10:56:23;58.15;51.86;65.20;;
61321;Laerm;17737;52.586;13.284;2023-02-01T10:59:00;58.43;52.08;66.54;;
61321;Laerm;17737;52.586;13.284;2023-02-01T11:01:35;59.01;52.23;66.54;;
61321;Laerm;17737;52.586;13.284;2023-02-01T11:04:09;59.45;51.83;69.19;;
61321;Laerm;17737;52.586;13.284;2023-02-01T11:06:41;58.46;51.72;65.86;;
61321;Laerm;17737;52.586;13.284;2023-02-01T11:09:18;55.62;51.81;64.95;;
61321;Laerm;17737;52.586;13.284;2023-02-01T11:11:58;58.60;52.11;65.29;;
61321;Laerm;17737;52.586;13.284;2023-02-01T11:14:35;57.42;51.76;68.38;;
61321;Laerm;17737;52.586;13.284;2023-02-01T11:17:26;57.90;51.72;64.82;;
61321;Laerm;17737;52.586;13.284;2023-02-01T11:20:00;56.88;51.66;66.00;;
61321;Laerm;17737;52.586;13.284;2023-02-01T11:22:29;59.42;51.61;67.68;;
61321;Laerm;17737;52.586;13.284;2023-02-01T11:24:59;57.77;51.54;65.51;;
61321;Laerm;17737;52.586;13.284;2023-02-01T11:27:33;58.95;51.78;65.19;;
61321;Laerm;17737;52.586;13.284;2023-02-01T11:30:16;59.17;51.94;66.22;;
61321;Laerm;17737;52.586;13.284;2023-02-01T11:32:48;58.47;52.59;64.48;;
61321;Laerm;17737;52.586;13.284;2023-02-01T11:35:20;57.18;51.68;66.43;;
61321;Laerm;17737;52.586;13.284;2023-02-01T11:37:55;56.72;51.64;64.89;;
61321;Laerm;17737;52.586;13.284;2023-02-01T11:40:28;56.89;51.86;63.05;;
61321;Laerm;17737;52.586;13.284;2023-02-01T11:43:00;57.24;51.83;64.80;;
61321;Laerm;17737;52.586;13.284;2023-02-01T11:45:30;56.81;51.86;62.41;;
61321;Laerm;17737;52.586;13.284;2023-02-01T11:48:01;57.48;51.76;63.94;;
61321;Laerm;17737;52.586;13.284;2023-02-01T11:50:38;56.21;51.39;67.63;;
61321;Laerm;17737;52.586;13.284;2023-02-01T11:53:21;57.62;51.94;68.39;;
61321;Laerm;17737;52.586;13.284;2023-02-01T11:56:02;59.13;51.69;67.38;;
61321;Laerm;17737;52.586;13.284;2023-02-01T11:59:16;55.60;51.63;62.39;;
61321;Laerm;17737;52.586;13.284;2023-02-01T12:02:20;56.90;51.49;64.46;;
61321;Laerm;17737;52.586;13.284;2023-02-01T12:05:23;57.01;51.71;66.99;;
61321;Laerm;17737;52.586;13.284;2023-02-01T12:11:34;57.59;51.63;69.38;;
61321;Laerm;17737;52.586;13.284;2023-02-01T12:14:24;57.10;51.66;63.83;;
61321;Laerm;17737;52.586;13.284;2023-02-01T12:17:17;55.77;51.77;61.55;;
61321;Laerm;17737;52.586;13.284;2023-02-01T12:20:13;57.99;51.73;64.71;;
61321;Laerm;17737;52.586;13.284;2023-02-01T12:22:59;56.60;51.81;64.89;;
61321;Laerm;17737;52.586;13.284;2023-02-01T12:25:44;57.51;51.53;63.79;;
61321;Laerm;17737;52.586;13.284;2023-02-01T12:28:46;58.63;52.08;67.68;;
61321;Laerm;17737;52.586;13.284;2023-02-01T12:31:45;56.62;51.71;64.16;;
61321;Laerm;17737;52.586;13.284;2023-02-01T12:34:36;58.33;51.73;68.78;;
61321;Laerm;17737;52.586;13.284;2023-02-01T12:37:20;55.86;51.86;62.11;;
61321;Laerm;17737;52.586;13.284;2023-02-01T12:40:02;57.99;51.79;70.71;;
61321;Laerm;17737;52.586;13.284;2023-02-01T12:42:41;58.67;52.02;64.70;;
61321;Laerm;17737;52.586;13.284;2023-02-01T12:45:16;57.10;51.64;64.04;;
61321;Laerm;17737;52.586;13.284;2023-02-01T12:47:55;55.72;51.72;62.94;;
61321;Laerm;17737;52.586;13.284;2023-02-01T12:50:33;56.08;51.58;62.67;;
61321;Laerm;17737;52.586;13.284;2023-02-01T12:53:14;56.92;51.53;67.23;;
61321;Laerm;17737;52.586;13.284;2023-02-01T12:55:52;56.73;51.68;63.15;;
61321;Laerm;17737;52.586;13.284;2023-02-01T12:58:24;57.61;51.70;65.15;;
61321;Laerm;17737;52.586;13.284;2023-02-01T13:01:02;58.41;51.89;68.64;;
61321;Laerm;17737;52.586;13.284;2023-02-01T13:03:44;56.10;51.71;63.53;;
61321;Laerm;17737;52.586;13.284;2023-02-01T13:06:22;55.62;51.58;61.88;;
61321;Laerm;17737;52.586;13.284;2023-02-01T13:08:58;57.12;51.92;62.92;;
61321;Laerm;17737;52.586;13.284;2023-02-01T13:11:33;56.04;51.63;63.46;;
61321;Laerm;17737;52.586;13.284;2023-02-01T13:14:22;57.42;51.71;64.28;;
61321;Laerm;17737;52.586;13.284;2023-02-01T13:16:56;56.27;51.74;63.78;;
61321;Laerm;17737;52.586;13.284;2023-02-01T13:19:39;57.07;51.93;63.97;;
61321;Laerm;17737;52.586;13.284;2023-02-01T13:22:17;56.87;51.87;63.26;;
61321;Laerm;17737;52.586;13.284;2023-02-01T13:24:50;57.51;51.84;63.25;;
61321;Laerm;17737;52.586;13.284;2023-02-01T13:27:20;56.83;52.07;63.34;;
61321;Laerm;17737;52.586;13.284;2023-02-01T13:29:55;57.38;51.58;67.32;;
61321;Laerm;17737;52.586;13.284;2023-02-01T13:32:51;56.88;51.89;64.32;;
61321;Laerm;17737;52.586;13.284;2023-02-01T13:36:08;57.34;51.74;67.78;;
61321;Laerm;17737;52.586;13.284;2023-02-01T13:39:37;56.49;51.59;63.56;;
61321;Laerm;17737;52.586;13.284;2023-02-01T13:42:15;56.78;51.48;64.22;;
61321;Laerm;17737;52.586;13.284;2023-02-01T13:44:49;56.40;51.42;62.91;;
61321;Laerm;17737;52.586;13.284;2023-02-01T13:47:27;54.19;51.50;61.20;;
61321;Laerm;17737;52.586;13.284;2023-02-01T13:50:02;56.87;51.80;63.05;;
61321;Laerm;17737;52.586;13.284;2023-02-01T13:52:39;56.75;51.53;64.88;;
61321;Laerm;17737;52.586;13.284;2023-02-01T13:55:31;56.96;51.79;62.92;;
61321;Laerm;17737;52.586;13.284;2023-02-01T13:58:10;56.85;51.75;63.85;;
61321;Laerm;17737;52.586;13.284;2023-02-01T14:00:42;57.54;52.42;63.58;;
61321;Laerm;17737;52.586;13.284;2023-02-01T14:03:20;56.97;52.10;62.35;;
61321;Laerm;17737;52.586;13.284;2023-02-01T14:09:21;57.19;52.16;63.82;;
61321;Laerm;17737;52.586;13.284;2023-02-01T14:12:45;59.62;51.88;68.25;;
61321;Laerm;17737;52.586;13.284;2023-02-01T14:15:22;59.08;52.00;66.55;;
61321;Laerm;17737;52.586;13.284;2023-02-01T14:17:53;61.31;52.56;69.49;;
61321;Laerm;17737;52.586;13.284;2023-02-01T14:20:48;59.61;51.97;67.47;;
61321;Laerm;17737;52.586;13.284;2023-02-01T14:23:26;58.62;52.37;68.70;;
61321;Laerm;17737;52.586;13.284;2023-02-01T14:26:17;60.52;51.99;68.21;;
61321;Laerm;17737;52.586;13.284;2023-02-01T14:28:54;58.89;51.67;66.81;;